Aries — WDD5491 — position and weather

sailwx.info

Track history (hours):
 
Tides and Currents Weather Stations Pressure Air Temp Water Temp Dewpoint Dewpoint Depression Visibility Wind Speed Wind Dir Waves Ship Positions

Aries

Owner: Vulcan Materials Company, Richmond, VA. More information available from US FCC via Universal Licensing System and Coast Guard Vessel Documentation Center.

Last reported at 2018-Jun-19 22:10 UTC. Time now 2018-Jun-20 01:59 UTC.
Position N 36°43' W 076°14'.

Length 18 m; draft 3 m.

Type: Tug. MMSI: 367159120.

Date/timePositionNaut miles runAvg speedWind from/ knotsBaromVisibWave heightAir tempDewpointWater temp
2018-Jun-19 22:10N 36°43' W 076°14'0 2.1
2018-Jun-19 22:00N 36°43' W 076°15'0 0.9
2018-Jun-19 21:30N 36°44' W 076°15'3 5.2
2018-Jun-19 21:00N 36°45' W 076°18'2 3.2
2018-Jun-19 20:30N 36°47' W 076°18'1 2.3
2018-Jun-19 20:00N 36°48' W 076°18'3 5.5
2018-Jun-19 19:30N 36°50' W 076°17'1 1.3
2018-Jun-19 19:00N 36°50' W 076°16'0 0.6
2018-Jun-19 18:18N 36°50' W 076°16'0 1.6
2018-Jun-19 18:00N 36°50' W 076°15'1 0.8
2018-Jun-19 17:11N 36°50' W 076°16'0 0.0
2018-Jun-19 16:37N 36°50' W 076°16'0 2.2
2018-Jun-19 16:29N 36°50' W 076°16'1 2.1
2018-Jun-19 16:00N 36°50' W 076°17'0 0.0
2018-Jun-19 15:26N 36°50' W 076°17'0 0.0
2018-Jun-19 15:00N 36°50' W 076°17'0 0.0
2018-Jun-19 14:30N 36°50' W 076°17'0 0.0
2018-Jun-19 13:59N 36°50' W 076°17'0 0.0
2018-Jun-19 13:24N 36°50' W 076°17'0 0.0
2018-Jun-19 13:00N 36°50' W 076°17'0 0.0
2018-Jun-19 12:30N 36°50' W 076°17'0 0.0
2018-Jun-19 12:00N 36°50' W 076°17'1 2.8
2018-Jun-19 11:30N 36°50' W 076°16'2 3.4
2018-Jun-19 11:00N 36°50' W 076°18'3 6.0
2018-Jun-19 10:31N 36°47' W 076°18'3 5.3
2018-Jun-19 10:00N 36°44' W 076°17'2 3.7
2018-Jun-19 09:29N 36°43' W 076°15'1 0.0
2018-Jun-18 14:09N 36°43' W 076°14'0 3.1
2018-Jun-18 14:00N 36°43' W 076°15'1 1.1
2018-Jun-18 13:30N 36°44' W 076°15'2 4.6
2018-Jun-18 13:00N 36°45' W 076°18'2 4.3
2018-Jun-18 12:30N 36°47' W 076°18'0 0.6
2018-Jun-18 12:00N 36°47' W 076°18'3 5.7
2018-Jun-18 11:30N 36°49' W 076°17'2 2.6
2018-Jun-18 10:51N 36°50' W 076°16'0 0.1
2018-Jun-18 10:30N 36°50' W 076°16'0 0.3
2018-Jun-18 09:59N 36°50' W 076°16'1 1.1
2018-Jun-18 09:30N 36°50' W 076°15'1 0.8
2018-Jun-18 08:48N 36°50' W 076°16'0 0.9
2018-Jun-18 08:30N 36°50' W 076°16'2 3.1
2018-Jun-18 08:00N 36°51' W 076°18'3 5.2
2018-Jun-18 07:27N 36°53' W 076°20'0 0.1
2018-Jun-18 04:57N 36°53' W 076°20'3 7.7
2018-Jun-18 04:30N 36°51' W 076°18'1 2.9
2018-Jun-18 04:00N 36°49' W 076°17'0 0.0
2018-Jun-18 03:30N 36°49' W 076°17'0 0.0
2018-Jun-18 03:00N 36°49' W 076°17'1 2.3
2018-Jun-18 02:30N 36°50' W 076°17'0 0.0
2018-Jun-18 01:45N 36°50' W 076°17'1 3.7
2018-Jun-18 01:29N 36°51' W 076°18'2 0.1
2018-Jun-16 16:23N 36°53' W 076°20'3 6.6
2018-Jun-16 16:00N 36°51' W 076°18'2 3.7
2018-Jun-16 15:30N 36°50' W 076°16'0 0.3
2018-Jun-16 14:57N 36°50' W 076°16'0 0.3
2018-Jun-16 14:29N 36°50' W 076°16'1 2.7
2018-Jun-16 14:00N 36°50' W 076°17'0 0.0
2018-Jun-16 13:30N 36°50' W 076°17'0 0.0
2018-Jun-16 13:00N 36°50' W 076°17'0 0.0
2018-Jun-16 12:31N 36°50' W 076°17'0 0.0
2018-Jun-16 11:55N 36°50' W 076°17'0 0.0
2018-Jun-16 11:30N 36°50' W 076°17'0 0.0
2018-Jun-16 10:57N 36°50' W 076°17'0 0.0
2018-Jun-16 10:31N 36°50' W 076°17'0 0.0
2018-Jun-16 10:00N 36°50' W 076°17'0 0.0
2018-Jun-16 09:31N 36°50' W 076°17'0 0.0
2018-Jun-16 09:01N 36°50' W 076°17'0 0.0
2018-Jun-16 08:30N 36°50' W 076°17'0 0.0
2018-Jun-16 08:00N 36°50' W 076°17'0 0.0
2018-Jun-16 07:30N 36°50' W 076°17'0 0.0
2018-Jun-16 07:00N 36°50' W 076°17'0 0.0
2018-Jun-16 06:31N 36°50' W 076°17'0 0.0
2018-Jun-16 06:01N 36°50' W 076°17'0 0.0
2018-Jun-16 05:30N 36°50' W 076°17'0 0.0
2018-Jun-16 05:01N 36°50' W 076°17'0 0.0
2018-Jun-16 04:31N 36°50' W 076°17'0 0.0
2018-Jun-16 04:01N 36°50' W 076°17'0 0.0
2018-Jun-16 03:31N 36°50' W 076°17'0 0.0
2018-Jun-16 03:00N 36°50' W 076°17'0 0.0
2018-Jun-16 02:30N 36°50' W 076°17'0 0.0
2018-Jun-16 02:01N 36°50' W 076°17'0 0.0
2018-Jun-16 01:31N 36°50' W 076°17'0 0.0
2018-Jun-16 01:00N 36°50' W 076°17'0 0.0
2018-Jun-16 00:28N 36°50' W 076°17'0 0.0
2018-Jun-16 00:00N 36°50' W 076°17'1 2.4
2018-Jun-15 23:26N 36°50' W 076°16'2 3.6
2018-Jun-15 23:01N 36°50' W 076°18'2 4.8
2018-Jun-15 22:31N 36°47' W 076°18'3 6.2
2018-Jun-15 22:01N 36°51' W 076°17'1 2.6
2018-Jun-15 21:29N 36°50' W 076°16'1 2.1
2018-Jun-15 21:00N 36°50' W 076°17'3 5.3
2018-Jun-15 20:31N 36°48' W 076°18'3 5.5
2018-Jun-15 20:00N 36°45' W 076°18'3 5.5
2018-Jun-15 19:29N 36°43' W 076°15'1 0.0
2018-Jun-14 23:08N 36°43' W 076°14'0 3.6
2018-Jun-14 23:01N 36°43' W 076°15'0 0.6
2018-Jun-14 22:29N 36°43' W 076°15'2 4.7
2018-Jun-14 22:00N 36°44' W 076°18'3 5.1
2018-Jun-14 21:31N 36°47' W 076°18'2 4.5
2018-Jun-14 21:00N 36°49' W 076°17'2 3.8
2018-Jun-14 20:30N 36°50' W 076°16'0 0.5
2018-Jun-14 19:59N 36°50' W 076°16'0 0.0
2018-Jun-14 19:30N 36°50' W 076°16'1 2.2
2018-Jun-14 18:55N 36°50' W 076°17'0 0.0
2018-Jun-14 18:30N 36°50' W 076°17'0 0.0
2018-Jun-14 18:01N 36°50' W 076°17'0 0.0
2018-Jun-14 17:28N 36°50' W 076°17'0 0.0
2018-Jun-14 17:00N 36°50' W 076°17'0 0.0
2018-Jun-14 16:29N 36°50' W 076°17'0 0.0
2018-Jun-14 15:58N 36°50' W 076°17'0 0.0
2018-Jun-14 15:06N 36°50' W 076°17'0 0.0
2018-Jun-14 15:00N 36°50' W 076°17'0 0.0
2018-Jun-14 14:30N 36°50' W 076°17'0 0.0
2018-Jun-14 14:00N 36°50' W 076°17'0 0.0
2018-Jun-14 13:25N 36°50' W 076°17'0 0.0
2018-Jun-14 13:01N 36°50' W 076°17'0 0.0
2018-Jun-14 12:30N 36°50' W 076°17'0 0.0
2018-Jun-14 12:01N 36°50' W 076°17'1 2.5
2018-Jun-14 11:29N 36°50' W 076°16'0 0.2
2018-Jun-14 11:00N 36°50' W 076°16'3 5.1
2018-Jun-14 10:31N 36°51' W 076°19'1 0.0
2018-Jun-12 20:15N 36°53' W 076°20'1 6.1
2018-Jun-12 20:00N 36°51' W 076°19'2 4.1
2018-Jun-12 19:30N 36°50' W 076°17'1 1.3
2018-Jun-12 19:00N 36°50' W 076°16'0 0.0
2018-Jun-12 18:27N 36°50' W 076°16'1 3.2
2018-Jun-12 18:01N 36°51' W 076°17'2 4.5
2018-Jun-12 17:30N 36°48' W 076°17'1 1.7
2018-Jun-12 17:00N 36°47' W 076°18'1 2.9
2018-Jun-12 16:30N 36°49' W 076°17'2 4.1
2018-Jun-12 16:00N 36°50' W 076°16'0 0.1
2018-Jun-12 14:25N 36°50' W 076°16'1 2.8
2018-Jun-12 13:56N 36°50' W 076°17'0 0.0
2018-Jun-12 13:30N 36°50' W 076°17'0 0.0
2018-Jun-12 12:58N 36°50' W 076°17'0 0.0
2018-Jun-12 12:30N 36°50' W 076°17'0 0.0
2018-Jun-12 12:00N 36°50' W 076°17'0 0.0
2018-Jun-12 11:30N 36°50' W 076°17'0 0.0
2018-Jun-12 11:00N 36°50' W 076°17'1 2.6
2018-Jun-12 10:28N 36°50' W 076°16'1 1.7
2018-Jun-12 10:00N 36°50' W 076°15'0 0.0
2018-Jun-12 09:30N 36°50' W 076°15'0 0.0
2018-Jun-12 09:00N 36°50' W 076°15'0 0.0
2018-Jun-12 08:30N 36°50' W 076°15'0 0.0
2018-Jun-12 08:00N 36°50' W 076°15'0 0.0
2018-Jun-12 07:30N 36°50' W 076°15'0 0.0
2018-Jun-12 07:00N 36°50' W 076°15'0 0.0
2018-Jun-12 06:30N 36°50' W 076°15'0 0.0
2018-Jun-12 06:00N 36°50' W 076°15'0 0.0
2018-Jun-12 05:30N 36°50' W 076°15'0 0.0
2018-Jun-12 05:00N 36°50' W 076°15'0 0.0
2018-Jun-12 04:30N 36°50' W 076°15'0 0.1
2018-Jun-12 04:00N 36°50' W 076°15'2 4.0
2018-Jun-12 03:30N 36°50' W 076°17'2 2.5
2018-Jun-12 02:34N 36°51' W 076°20'0 1.6
2018-Jun-12 02:30N 36°51' W 076°20'3 6.6
2018-Jun-12 02:00N 36°50' W 076°16'0 0.4
2018-Jun-12 01:23N 36°50' W 076°16'2 6.1
2018-Jun-12 01:00N 36°51' W 076°18'3 0.6
2018-Jun-11 20:28N 36°53' W 076°20'4 7.6
2018-Jun-11 19:59N 36°50' W 076°17'0 0.6
2018-Jun-11 19:30N 36°50' W 076°17'1 1.4
2018-Jun-11 19:00N 36°50' W 076°17'0 0.0
2018-Jun-11 18:30N 36°50' W 076°17'0 0.0
2018-Jun-11 18:00N 36°50' W 076°17'0 0.0
2018-Jun-11 17:30N 36°50' W 076°17'0 0.0
2018-Jun-11 16:58N 36°50' W 076°17'0 0.0
2018-Jun-11 16:30N 36°50' W 076°17'0 0.0
2018-Jun-11 16:00N 36°50' W 076°17'0 0.9
2018-Jun-11 15:30N 36°50' W 076°17'1 1.4
2018-Jun-11 14:51N 36°50' W 076°16'0 1.2
2018-Jun-11 14:30N 36°50' W 076°16'2 3.3
2018-Jun-11 14:00N 36°49' W 076°17'2 4.5
2018-Jun-11 13:30N 36°47' W 076°18'1 1.9
2018-Jun-11 13:00N 36°48' W 076°18'1 2.4
2018-Jun-11 12:30N 36°47' W 076°18'1 2.7
2018-Jun-11 12:00N 36°48' W 076°18'3 5.6
2018-Jun-11 11:30N 36°50' W 076°16'1 2.5
2018-Jun-11 11:00N 36°50' W 076°18'0 0.1
2018-Jun-11 10:30N 36°50' W 076°17'0 0.0
2018-Jun-11 06:01N 36°50' W 076°17'0 0.0
2018-Jun-11 05:58N 36°50' W 076°17'0 0.0
2018-Jun-11 05:30N 36°50' W 076°17'0 0.0
2018-Jun-11 04:08N 36°50' W 076°17'0 0.0
2018-Jun-11 04:00N 36°50' W 076°17'0 0.0
2018-Jun-11 03:30N 36°50' W 076°17'0 0.0
2018-Jun-11 03:00N 36°50' W 076°17'0 0.0
2018-Jun-11 02:30N 36°50' W 076°17'0 0.0
2018-Jun-11 01:55N 36°50' W 076°17'0 0.0
2018-Jun-11 01:30N 36°50' W 076°17'0 0.0
2018-Jun-11 01:00N 36°50' W 076°17'0 0.0
2018-Jun-11 00:30N 36°50' W 076°17'0 0.0
2018-Jun-11 00:00N 36°50' W 076°17'0 0.0
2018-Jun-10 23:30N 36°50' W 076°17'0 0.0
2018-Jun-10 23:00N 36°50' W 076°17'0 0.0
2018-Jun-10 22:29N 36°50' W 076°17'0 0.0
2018-Jun-10 22:00N 36°50' W 076°17'0 0.0
2018-Jun-10 21:30N 36°50' W 076°17'0 0.0
2018-Jun-10 20:59N 36°50' W 076°17'0 0.0
2018-Jun-10 20:30N 36°50' W 076°17'0 0.0
2018-Jun-10 19:58N 36°50' W 076°17'0 0.0
2018-Jun-10 19:23N 36°50' W 076°17'0 0.0
2018-Jun-10 19:00N 36°50' W 076°17'0 0.0
2018-Jun-10 18:30N 36°50' W 076°17'0 0.0
2018-Jun-10 17:59N 36°50' W 076°17'0 0.0
2018-Jun-10 17:29N 36°50' W 076°17'0 0.0
2018-Jun-10 16:53N 36°50' W 076°17'0 0.0
2018-Jun-10 16:25N 36°50' W 076°17'0 0.0
2018-Jun-10 15:16N 36°50' W 076°17'0 0.0
2018-Jun-10 15:00N 36°50' W 076°17'0 0.0
2018-Jun-10 14:28N 36°50' W 076°17'0 0.0
2018-Jun-10 13:30N 36°50' W 076°17'0 0.0
2018-Jun-10 13:00N 36°50' W 076°17'0 0.0
2018-Jun-10 12:30N 36°50' W 076°17'0 0.0
2018-Jun-10 12:00N 36°50' W 076°17'0 0.0
2018-Jun-10 11:30N 36°50' W 076°17'0 0.0
2018-Jun-10 11:00N 36°50' W 076°17'0 0.0
2018-Jun-10 09:10N 36°50' W 076°17'0 2.5
2018-Jun-10 09:00N 36°50' W 076°17'0 0.3
2018-Jun-10 08:30N 36°50' W 076°17'3 0.6
2018-Jun-10 03:28N 36°53' W 076°20'3 7.1
2018-Jun-10 03:00N 36°50' W 076°17'0 0.2
2018-Jun-10 02:30N 36°50' W 076°17'1 0.3
2018-Jun-10 00:34N 36°50' W 076°17'0 0.0
2018-Jun-10 00:24N 36°50' W 076°17'0 0.0
2018-Jun-10 00:00N 36°50' W 076°17'0 0.0
2018-Jun-09 23:30N 36°50' W 076°17'0 0.0
2018-Jun-09 23:00N 36°50' W 076°17'0 0.0
2018-Jun-09 22:30N 36°50' W 076°17'  
Track history (hours):
 
Tides and Currents Weather Stations Pressure Air Temp Water Temp Dewpoint Dewpoint Depression Visibility Wind Speed Wind Dir Waves Ship Positions

Aries

Owner: Vulcan Materials Company, Richmond, VA. More information available from US FCC via Universal Licensing System and Coast Guard Vessel Documentation Center.

Last reported at 2018-Jun-19 22:10 UTC. Time now 2018-Jun-20 01:59 UTC.
Position N 36°43' W 076°14'.

Length 18 m; draft 3 m.

Type: Tug. MMSI: 367159120.

Date/timePositionNaut miles runAvg speedWind from/ knotsBaromVisibWave heightAir tempDewpointWater temp
2018-Jun-19 22:10N 36°43' W 076°14'0 2.1
2018-Jun-19 22:00N 36°43' W 076°15'0 0.9
2018-Jun-19 21:30N 36°44' W 076°15'3 5.2
2018-Jun-19 21:00N 36°45' W 076°18'2 3.2
2018-Jun-19 20:30N 36°47' W 076°18'1 2.3
2018-Jun-19 20:00N 36°48' W 076°18'3 5.5
2018-Jun-19 19:30N 36°50' W 076°17'1 1.3
2018-Jun-19 19:00N 36°50' W 076°16'0 0.6
2018-Jun-19 18:18N 36°50' W 076°16'0 1.6
2018-Jun-19 18:00N 36°50' W 076°15'1 0.8
2018-Jun-19 17:11N 36°50' W 076°16'0 0.0
2018-Jun-19 16:37N 36°50' W 076°16'0 2.2
2018-Jun-19 16:29N 36°50' W 076°16'1 2.1
2018-Jun-19 16:00N 36°50' W 076°17'0 0.0
2018-Jun-19 15:26N 36°50' W 076°17'0 0.0
2018-Jun-19 15:00N 36°50' W 076°17'0 0.0
2018-Jun-19 14:30N 36°50' W 076°17'0 0.0
2018-Jun-19 13:59N 36°50' W 076°17'0 0.0
2018-Jun-19 13:24N 36°50' W 076°17'0 0.0
2018-Jun-19 13:00N 36°50' W 076°17'0 0.0
2018-Jun-19 12:30N 36°50' W 076°17'0 0.0
2018-Jun-19 12:00N 36°50' W 076°17'1 2.8
2018-Jun-19 11:30N 36°50' W 076°16'2 3.4
2018-Jun-19 11:00N 36°50' W 076°18'3 6.0
2018-Jun-19 10:31N 36°47' W 076°18'3 5.3
2018-Jun-19 10:00N 36°44' W 076°17'2 3.7
2018-Jun-19 09:29N 36°43' W 076°15'1 0.0
2018-Jun-18 14:09N 36°43' W 076°14'0 3.1
2018-Jun-18 14:00N 36°43' W 076°15'1 1.1
2018-Jun-18 13:30N 36°44' W 076°15'2 4.6
2018-Jun-18 13:00N 36°45' W 076°18'2 4.3
2018-Jun-18 12:30N 36°47' W 076°18'0 0.6
2018-Jun-18 12:00N 36°47' W 076°18'3 5.7
2018-Jun-18 11:30N 36°49' W 076°17'2 2.6
2018-Jun-18 10:51N 36°50' W 076°16'0 0.1
2018-Jun-18 10:30N 36°50' W 076°16'0 0.3
2018-Jun-18 09:59N 36°50' W 076°16'1 1.1
2018-Jun-18 09:30N 36°50' W 076°15'1 0.8
2018-Jun-18 08:48N 36°50' W 076°16'0 0.9
2018-Jun-18 08:30N 36°50' W 076°16'2 3.1
2018-Jun-18 08:00N 36°51' W 076°18'3 5.2
2018-Jun-18 07:27N 36°53' W 076°20'0 0.1
2018-Jun-18 04:57N 36°53' W 076°20'3 7.7
2018-Jun-18 04:30N 36°51' W 076°18'1 2.9
2018-Jun-18 04:00N 36°49' W 076°17'0 0.0
2018-Jun-18 03:30N 36°49' W 076°17'0 0.0
2018-Jun-18 03:00N 36°49' W 076°17'1 2.3
2018-Jun-18 02:30N 36°50' W 076°17'0 0.0
2018-Jun-18 01:45N 36°50' W 076°17'1 3.7
2018-Jun-18 01:29N 36°51' W 076°18'2 0.1
2018-Jun-16 16:23N 36°53' W 076°20'3 6.6
2018-Jun-16 16:00N 36°51' W 076°18'2 3.7
2018-Jun-16 15:30N 36°50' W 076°16'0 0.3
2018-Jun-16 14:57N 36°50' W 076°16'0 0.3
2018-Jun-16 14:29N 36°50' W 076°16'1 2.7
2018-Jun-16 14:00N 36°50' W 076°17'0 0.0
2018-Jun-16 13:30N 36°50' W 076°17'0 0.0
2018-Jun-16 13:00N 36°50' W 076°17'0 0.0
2018-Jun-16 12:31N 36°50' W 076°17'0 0.0
2018-Jun-16 11:55N 36°50' W 076°17'0 0.0
2018-Jun-16 11:30N 36°50' W 076°17'0 0.0
2018-Jun-16 10:57N 36°50' W 076°17'0 0.0
2018-Jun-16 10:31N 36°50' W 076°17'0 0.0
2018-Jun-16 10:00N 36°50' W 076°17'0 0.0
2018-Jun-16 09:31N 36°50' W 076°17'0 0.0
2018-Jun-16 09:01N 36°50' W 076°17'0 0.0
2018-Jun-16 08:30N 36°50' W 076°17'0 0.0
2018-Jun-16 08:00N 36°50' W 076°17'0 0.0
2018-Jun-16 07:30N 36°50' W 076°17'0 0.0
2018-Jun-16 07:00N 36°50' W 076°17'0 0.0
2018-Jun-16 06:31N 36°50' W 076°17'0 0.0
2018-Jun-16 06:01N 36°50' W 076°17'0 0.0
2018-Jun-16 05:30N 36°50' W 076°17'0 0.0
2018-Jun-16 05:01N 36°50' W 076°17'0 0.0
2018-Jun-16 04:31N 36°50' W 076°17'0 0.0
2018-Jun-16 04:01N 36°50' W 076°17'0 0.0
2018-Jun-16 03:31N 36°50' W 076°17'0 0.0
2018-Jun-16 03:00N 36°50' W 076°17'0 0.0
2018-Jun-16 02:30N 36°50' W 076°17'0 0.0
2018-Jun-16 02:01N 36°50' W 076°17'0 0.0
2018-Jun-16 01:31N 36°50' W 076°17'0 0.0
2018-Jun-16 01:00N 36°50' W 076°17'0 0.0
2018-Jun-16 00:28N 36°50' W 076°17'0 0.0
2018-Jun-16 00:00N 36°50' W 076°17'1 2.4
2018-Jun-15 23:26N 36°50' W 076°16'2 3.6
2018-Jun-15 23:01N 36°50' W 076°18'2 4.8
2018-Jun-15 22:31N 36°47' W 076°18'3 6.2
2018-Jun-15 22:01N 36°51' W 076°17'1 2.6
2018-Jun-15 21:29N 36°50' W 076°16'1 2.1
2018-Jun-15 21:00N 36°50' W 076°17'3 5.3
2018-Jun-15 20:31N 36°48' W 076°18'3 5.5
2018-Jun-15 20:00N 36°45' W 076°18'3 5.5
2018-Jun-15 19:29N 36°43' W 076°15'1 0.0
2018-Jun-14 23:08N 36°43' W 076°14'0 3.6
2018-Jun-14 23:01N 36°43' W 076°15'0 0.6
2018-Jun-14 22:29N 36°43' W 076°15'2 4.7
2018-Jun-14 22:00N 36°44' W 076°18'3 5.1
2018-Jun-14 21:31N 36°47' W 076°18'2 4.5
2018-Jun-14 21:00N 36°49' W 076°17'2 3.8
2018-Jun-14 20:30N 36°50' W 076°16'0 0.5
2018-Jun-14 19:59N 36°50' W 076°16'0 0.0
2018-Jun-14 19:30N 36°50' W 076°16'1 2.2
2018-Jun-14 18:55N 36°50' W 076°17'0 0.0
2018-Jun-14 18:30N 36°50' W 076°17'0 0.0
2018-Jun-14 18:01N 36°50' W 076°17'0 0.0
2018-Jun-14 17:28N 36°50' W 076°17'0 0.0
2018-Jun-14 17:00N 36°50' W 076°17'0 0.0
2018-Jun-14 16:29N 36°50' W 076°17'0 0.0
2018-Jun-14 15:58N 36°50' W 076°17'0 0.0
2018-Jun-14 15:06N 36°50' W 076°17'0 0.0
2018-Jun-14 15:00N 36°50' W 076°17'0 0.0
2018-Jun-14 14:30N 36°50' W 076°17'0 0.0
2018-Jun-14 14:00N 36°50' W 076°17'0 0.0
2018-Jun-14 13:25N 36°50' W 076°17'0 0.0
2018-Jun-14 13:01N 36°50' W 076°17'0 0.0
2018-Jun-14 12:30N 36°50' W 076°17'0 0.0
2018-Jun-14 12:01N 36°50' W 076°17'1 2.5
2018-Jun-14 11:29N 36°50' W 076°16'0 0.2
2018-Jun-14 11:00N 36°50' W 076°16'3 5.1
2018-Jun-14 10:31N 36°51' W 076°19'1 0.0
2018-Jun-12 20:15N 36°53' W 076°20'1 6.1
2018-Jun-12 20:00N 36°51' W 076°19'2 4.1
2018-Jun-12 19:30N 36°50' W 076°17'1 1.3
2018-Jun-12 19:00N 36°50' W 076°16'0 0.0
2018-Jun-12 18:27N 36°50' W 076°16'1 3.2
2018-Jun-12 18:01N 36°51' W 076°17'2 4.5
2018-Jun-12 17:30N 36°48' W 076°17'1 1.7
2018-Jun-12 17:00N 36°47' W 076°18'1 2.9
2018-Jun-12 16:30N 36°49' W 076°17'2 4.1
2018-Jun-12 16:00N 36°50' W 076°16'0 0.1
2018-Jun-12 14:25N 36°50' W 076°16'1 2.8
2018-Jun-12 13:56N 36°50' W 076°17'0 0.0
2018-Jun-12 13:30N 36°50' W 076°17'0 0.0
2018-Jun-12 12:58N 36°50' W 076°17'0 0.0
2018-Jun-12 12:30N 36°50' W 076°17'0 0.0
2018-Jun-12 12:00N 36°50' W 076°17'0 0.0
2018-Jun-12 11:30N 36°50' W 076°17'0 0.0
2018-Jun-12 11:00N 36°50' W 076°17'1 2.6
2018-Jun-12 10:28N 36°50' W 076°16'1 1.7
2018-Jun-12 10:00N 36°50' W 076°15'0 0.0
2018-Jun-12 09:30N 36°50' W 076°15'0 0.0
2018-Jun-12 09:00N 36°50' W 076°15'0 0.0
2018-Jun-12 08:30N 36°50' W 076°15'0 0.0
2018-Jun-12 08:00N 36°50' W 076°15'0 0.0
2018-Jun-12 07:30N 36°50' W 076°15'0 0.0
2018-Jun-12 07:00N 36°50' W 076°15'0 0.0
2018-Jun-12 06:30N 36°50' W 076°15'0 0.0
2018-Jun-12 06:00N 36°50' W 076°15'0 0.0
2018-Jun-12 05:30N 36°50' W 076°15'0 0.0
2018-Jun-12 05:00N 36°50' W 076°15'0 0.0
2018-Jun-12 04:30N 36°50' W 076°15'0 0.1
2018-Jun-12 04:00N 36°50' W 076°15'2 4.0
2018-Jun-12 03:30N 36°50' W 076°17'2 2.5
2018-Jun-12 02:34N 36°51' W 076°20'0 1.6
2018-Jun-12 02:30N 36°51' W 076°20'3 6.6
2018-Jun-12 02:00N 36°50' W 076°16'0 0.4
2018-Jun-12 01:23N 36°50' W 076°16'2 6.1
2018-Jun-12 01:00N 36°51' W 076°18'3 0.6
2018-Jun-11 20:28N 36°53' W 076°20'4 7.6
2018-Jun-11 19:59N 36°50' W 076°17'0 0.6
2018-Jun-11 19:30N 36°50' W 076°17'1 1.4
2018-Jun-11 19:00N 36°50' W 076°17'0 0.0
2018-Jun-11 18:30N 36°50' W 076°17'0 0.0
2018-Jun-11 18:00N 36°50' W 076°17'0 0.0
2018-Jun-11 17:30N 36°50' W 076°17'0 0.0
2018-Jun-11 16:58N 36°50' W 076°17'0 0.0
2018-Jun-11 16:30N 36°50' W 076°17'0 0.0
2018-Jun-11 16:00N 36°50' W 076°17'0 0.9
2018-Jun-11 15:30N 36°50' W 076°17'1 1.4
2018-Jun-11 14:51N 36°50' W 076°16'0 1.2
2018-Jun-11 14:30N 36°50' W 076°16'2 3.3
2018-Jun-11 14:00N 36°49' W 076°17'2 4.5
2018-Jun-11 13:30N 36°47' W 076°18'1 1.9
2018-Jun-11 13:00N 36°48' W 076°18'1 2.4
2018-Jun-11 12:30N 36°47' W 076°18'1 2.7
2018-Jun-11 12:00N 36°48' W 076°18'3 5.6
2018-Jun-11 11:30N 36°50' W 076°16'1 2.5
2018-Jun-11 11:00N 36°50' W 076°18'0 0.1
2018-Jun-11 10:30N 36°50' W 076°17'0 0.0
2018-Jun-11 06:01N 36°50' W 076°17'0 0.0
2018-Jun-11 05:58N 36°50' W 076°17'0 0.0
2018-Jun-11 05:30N 36°50' W 076°17'0 0.0
2018-Jun-11 04:08N 36°50' W 076°17'0 0.0
2018-Jun-11 04:00N 36°50' W 076°17'0 0.0
2018-Jun-11 03:30N 36°50' W 076°17'0 0.0
2018-Jun-11 03:00N 36°50' W 076°17'0 0.0
2018-Jun-11 02:30N 36°50' W 076°17'0 0.0
2018-Jun-11 01:55N 36°50' W 076°17'0 0.0
2018-Jun-11 01:30N 36°50' W 076°17'0 0.0
2018-Jun-11 01:00N 36°50' W 076°17'0 0.0
2018-Jun-11 00:30N 36°50' W 076°17'0 0.0
2018-Jun-11 00:00N 36°50' W 076°17'0 0.0
2018-Jun-10 23:30N 36°50' W 076°17'0 0.0
2018-Jun-10 23:00N 36°50' W 076°17'0 0.0
2018-Jun-10 22:29N 36°50' W 076°17'0 0.0
2018-Jun-10 22:00N 36°50' W 076°17'0 0.0
2018-Jun-10 21:30N 36°50' W 076°17'0 0.0
2018-Jun-10 20:59N 36°50' W 076°17'0 0.0
2018-Jun-10 20:30N 36°50' W 076°17'0 0.0
2018-Jun-10 19:58N 36°50' W 076°17'0 0.0
2018-Jun-10 19:23N 36°50' W 076°17'0 0.0
2018-Jun-10 19:00N 36°50' W 076°17'0 0.0
2018-Jun-10 18:30N 36°50' W 076°17'0 0.0
2018-Jun-10 17:59N 36°50' W 076°17'0 0.0
2018-Jun-10 17:29N 36°50' W 076°17'0 0.0
2018-Jun-10 16:53N 36°50' W 076°17'0 0.0
2018-Jun-10 16:25N 36°50' W 076°17'0 0.0
2018-Jun-10 15:16N 36°50' W 076°17'0 0.0
2018-Jun-10 15:00N 36°50' W 076°17'0 0.0
2018-Jun-10 14:28N 36°50' W 076°17'0 0.0
2018-Jun-10 13:30N 36°50' W 076°17'0 0.0
2018-Jun-10 13:00N 36°50' W 076°17'0 0.0
2018-Jun-10 12:30N 36°50' W 076°17'0 0.0
2018-Jun-10 12:00N 36°50' W 076°17'0 0.0
2018-Jun-10 11:30N 36°50' W 076°17'0 0.0
2018-Jun-10 11:00N 36°50' W 076°17'0 0.0
2018-Jun-10 09:10N 36°50' W 076°17'0 2.5
2018-Jun-10 09:00N 36°50' W 076°17'0 0.3
2018-Jun-10 08:30N 36°50' W 076°17'3 0.6
2018-Jun-10 03:28N 36°53' W 076°20'3 7.1
2018-Jun-10 03:00N 36°50' W 076°17'0 0.2
2018-Jun-10 02:30N 36°50' W 076°17'1 0.3
2018-Jun-10 00:34N 36°50' W 076°17'0 0.0
2018-Jun-10 00:24N 36°50' W 076°17'0 0.0
2018-Jun-10 00:00N 36°50' W 076°17'0 0.0
2018-Jun-09 23:30N 36°50' W 076°17'0 0.0
2018-Jun-09 23:00N 36°50' W 076°17'0 0.0
2018-Jun-09 22:30N 36°50' W 076°17'  

Dump ship's entire track history